sensor_id;sensor_type;location;lat;lon;timestamp;P1;durP1;ratioP1;P2;durP2;ratioP2
1414;SDS011;702;49.466;11.086;2022-07-23T00:00:49;13.73;;;12.43;;
1414;SDS011;702;49.466;11.086;2022-07-23T00:03:16;12.50;;;11.20;;
1414;SDS011;702;49.466;11.086;2022-07-23T00:05:45;13.30;;;11.93;;
1414;SDS011;702;49.466;11.086;2022-07-23T00:08:12;12.60;;;11.60;;
1414;SDS011;702;49.466;11.086;2022-07-23T00:10:40;13.03;;;12.03;;
1414;SDS011;702;49.466;11.086;2022-07-23T00:13:07;13.43;;;12.10;;
1414;SDS011;702;49.466;11.086;2022-07-23T00:15:35;13.67;;;12.40;;
1414;SDS011;702;49.466;11.086;2022-07-23T00:18:02;14.80;;;13.40;;
1414;SDS011;702;49.466;11.086;2022-07-23T00:20:30;15.20;;;14.00;;
1414;SDS011;702;49.466;11.086;2022-07-23T00:22:59;14.47;;;13.30;;
1414;SDS011;702;49.466;11.086;2022-07-23T00:25:27;13.50;;;12.20;;
1414;SDS011;702;49.466;11.086;2022-07-23T00:27:54;15.63;;;14.33;;
1414;SDS011;702;49.466;11.086;2022-07-23T00:30:22;14.43;;;13.23;;
1414;SDS011;702;49.466;11.086;2022-07-23T00:32:49;15.13;;;13.93;;
1414;SDS011;702;49.466;11.086;2022-07-23T00:35:20;16.20;;;14.80;;
1414;SDS011;702;49.466;11.086;2022-07-23T00:37:48;14.00;;;12.60;;
1414;SDS011;702;49.466;11.086;2022-07-23T00:40:17;15.23;;;13.93;;
1414;SDS011;702;49.466;11.086;2022-07-23T00:42:44;14.87;;;13.77;;
1414;SDS011;702;49.466;11.086;2022-07-23T00:45:12;15.70;;;14.47;;
1414;SDS011;702;49.466;11.086;2022-07-23T00:47:40;15.10;;;13.90;;
1414;SDS011;702;49.466;11.086;2022-07-23T00:50:08;17.03;;;15.33;;
1414;SDS011;702;49.466;11.086;2022-07-23T00:52:37;16.47;;;15.07;;
1414;SDS011;702;49.466;11.086;2022-07-23T00:55:06;17.00;;;15.40;;
1414;SDS011;702;49.466;11.086;2022-07-23T00:57:37;16.07;;;14.53;;
1414;SDS011;702;49.466;11.086;2022-07-23T01:00:07;17.13;;;15.17;;
1414;SDS011;702;49.466;11.086;2022-07-23T01:02:37;17.00;;;13.10;;
1414;SDS011;702;49.466;11.086;2022-07-23T01:05:08;17.20;;;15.70;;
1414;SDS011;702;49.466;11.086;2022-07-23T01:07:37;15.63;;;14.33;;
1414;SDS011;702;49.466;11.086;2022-07-23T01:10:05;16.27;;;14.80;;
1414;SDS011;702;49.466;11.086;2022-07-23T01:12:55;15.30;;;14.00;;
1414;SDS011;702;49.466;11.086;2022-07-23T01:15:24;17.27;;;15.80;;
1414;SDS011;702;49.466;11.086;2022-07-23T01:17:51;16.80;;;15.40;;
1414;SDS011;702;49.466;11.086;2022-07-23T01:20:19;16.30;;;15.00;;
1414;SDS011;702;49.466;11.086;2022-07-23T01:22:48;16.93;;;15.20;;
1414;SDS011;702;49.466;11.086;2022-07-23T01:25:16;17.07;;;15.40;;
1414;SDS011;702;49.466;11.086;2022-07-23T01:27:44;17.60;;;16.00;;
1414;SDS011;702;49.466;11.086;2022-07-23T01:30:12;17.67;;;16.07;;
1414;SDS011;702;49.466;11.086;2022-07-23T01:32:39;16.27;;;14.63;;
1414;SDS011;702;49.466;11.086;2022-07-23T01:35:08;16.47;;;14.73;;
1414;SDS011;702;49.466;11.086;2022-07-23T01:37:36;17.20;;;15.70;;
1414;SDS011;702;49.466;11.086;2022-07-23T01:40:06;16.80;;;15.47;;
1414;SDS011;702;49.466;11.086;2022-07-23T01:42:34;17.80;;;16.40;;
1414;SDS011;702;49.466;11.086;2022-07-23T01:45:03;17.77;;;16.27;;
1414;SDS011;702;49.466;11.086;2022-07-23T01:47:31;17.77;;;16.10;;
1414;SDS011;702;49.466;11.086;2022-07-23T01:49:59;18.93;;;17.13;;
1414;SDS011;702;49.466;11.086;2022-07-23T01:52:26;18.17;;;16.70;;
1414;SDS011;702;49.466;11.086;2022-07-23T01:54:53;19.00;;;15.77;;
1414;SDS011;702;49.466;11.086;2022-07-23T01:57:22;16.53;;;14.93;;
1414;SDS011;702;49.466;11.086;2022-07-23T01:59:49;17.30;;;15.70;;
1414;SDS011;702;49.466;11.086;2022-07-23T02:02:16;15.87;;;14.57;;
1414;SDS011;702;49.466;11.086;2022-07-23T02:04:44;15.60;;;14.20;;
1414;SDS011;702;49.466;11.086;2022-07-23T02:07:11;15.57;;;14.23;;
1414;SDS011;702;49.466;11.086;2022-07-23T02:09:38;14.40;;;13.07;;
1414;SDS011;702;49.466;11.086;2022-07-23T02:12:10;16.53;;;15.00;;
1414;SDS011;702;49.466;11.086;2022-07-23T02:14:38;16.17;;;14.77;;
1414;SDS011;702;49.466;11.086;2022-07-23T02:17:06;16.60;;;14.80;;
1414;SDS011;702;49.466;11.086;2022-07-23T02:19:33;15.67;;;14.17;;
1414;SDS011;702;49.466;11.086;2022-07-23T02:22:00;17.13;;;15.43;;
1414;SDS011;702;49.466;11.086;2022-07-23T02:24:27;16.23;;;14.93;;
1414;SDS011;702;49.466;11.086;2022-07-23T02:26:55;16.67;;;14.93;;
1414;SDS011;702;49.466;11.086;2022-07-23T02:29:22;15.20;;;13.90;;
1414;SDS011;702;49.466;11.086;2022-07-23T02:31:51;16.37;;;14.97;;
1414;SDS011;702;49.466;11.086;2022-07-23T02:34:18;15.43;;;14.20;;
1414;SDS011;702;49.466;11.086;2022-07-23T02:36:45;16.17;;;14.47;;
1414;SDS011;702;49.466;11.086;2022-07-23T02:39:13;16.43;;;15.10;;
1414;SDS011;702;49.466;11.086;2022-07-23T02:41:40;15.53;;;14.33;;
1414;SDS011;702;49.466;11.086;2022-07-23T02:44:07;16.30;;;14.70;;
1414;SDS011;702;49.466;11.086;2022-07-23T02:46:35;17.87;;;16.27;;
1414;SDS011;702;49.466;11.086;2022-07-23T02:49:03;16.70;;;15.30;;
1414;SDS011;702;49.466;11.086;2022-07-23T02:51:31;15.10;;;13.90;;
1414;SDS011;702;49.466;11.086;2022-07-23T02:53:58;16.00;;;14.70;;
1414;SDS011;702;49.466;11.086;2022-07-23T02:56:26;15.37;;;14.17;;
1414;SDS011;702;49.466;11.086;2022-07-23T02:58:53;14.70;;;13.50;;
1414;SDS011;702;49.466;11.086;2022-07-23T03:01:20;17.33;;;15.83;;
1414;SDS011;702;49.466;11.086;2022-07-23T03:03:47;17.03;;;15.50;;
1414;SDS011;702;49.466;11.086;2022-07-23T03:06:16;14.80;;;13.60;;
1414;SDS011;702;49.466;11.086;2022-07-23T03:08:44;17.40;;;15.73;;
1414;SDS011;702;49.466;11.086;2022-07-23T03:11:11;15.80;;;14.60;;
1414;SDS011;702;49.466;11.086;2022-07-23T03:13:39;17.57;;;16.07;;
1414;SDS011;702;49.466;11.086;2022-07-23T03:16:06;17.00;;;15.40;;
1414;SDS011;702;49.466;11.086;2022-07-23T03:18:34;16.37;;;14.83;;
1414;SDS011;702;49.466;11.086;2022-07-23T03:21:02;16.27;;;14.90;;
1414;SDS011;702;49.466;11.086;2022-07-23T03:23:31;16.80;;;15.50;;
1414;SDS011;702;49.466;11.086;2022-07-23T03:25:58;17.07;;;15.40;;
1414;SDS011;702;49.466;11.086;2022-07-23T03:28:26;16.10;;;14.70;;
1414;SDS011;702;49.466;11.086;2022-07-23T03:30:53;17.40;;;15.70;;
1414;SDS011;702;49.466;11.086;2022-07-23T03:33:20;17.73;;;16.13;;
1414;SDS011;702;49.466;11.086;2022-07-23T03:35:48;17.60;;;16.10;;
1414;SDS011;702;49.466;11.086;2022-07-23T03:38:15;17.63;;;16.20;;
1414;SDS011;702;49.466;11.086;2022-07-23T03:40:44;17.73;;;16.33;;
1414;SDS011;702;49.466;11.086;2022-07-23T03:43:12;16.57;;;15.37;;
1414;SDS011;702;49.466;11.086;2022-07-23T03:45:41;18.00;;;16.33;;
1414;SDS011;702;49.466;11.086;2022-07-23T03:48:08;19.00;;;17.50;;
1414;SDS011;702;49.466;11.086;2022-07-23T03:50:36;17.43;;;15.63;;
1414;SDS011;702;49.466;11.086;2022-07-23T03:53:03;16.40;;;14.97;;
1414;SDS011;702;49.466;11.086;2022-07-23T03:55:31;15.93;;;14.63;;
1414;SDS011;702;49.466;11.086;2022-07-23T03:57:59;16.93;;;15.43;;
1414;SDS011;702;49.466;11.086;2022-07-23T04:00:27;15.67;;;14.37;;
1414;SDS011;702;49.466;11.086;2022-07-23T04:02:54;15.70;;;14.40;;
1414;SDS011;702;49.466;11.086;2022-07-23T04:05:22;16.40;;;14.57;;
1414;SDS011;702;49.466;11.086;2022-07-23T04:07:49;16.37;;;14.87;;
1414;SDS011;702;49.466;11.086;2022-07-23T04:10:16;15.33;;;14.03;;
1414;SDS011;702;49.466;11.086;2022-07-23T04:12:44;17.17;;;15.57;;
1414;SDS011;702;49.466;11.086;2022-07-23T04:15:12;16.20;;;14.70;;
1414;SDS011;702;49.466;11.086;2022-07-23T04:17:40;15.90;;;14.50;;
1414;SDS011;702;49.466;11.086;2022-07-23T04:20:09;15.27;;;13.53;;
1414;SDS011;702;49.466;11.086;2022-07-23T04:22:37;16.90;;;15.30;;
1414;SDS011;702;49.466;11.086;2022-07-23T04:25:05;15.10;;;13.60;;
1414;SDS011;702;49.466;11.086;2022-07-23T04:27:34;15.10;;;13.57;;
1414;SDS011;702;49.466;11.086;2022-07-23T04:30:01;15.90;;;14.57;;
1414;SDS011;702;49.466;11.086;2022-07-23T04:32:30;17.00;;;14.80;;
1414;SDS011;702;49.466;11.086;2022-07-23T04:34:57;15.20;;;13.90;;
1414;SDS011;702;49.466;11.086;2022-07-23T04:37:25;14.60;;;13.20;;
1414;SDS011;702;49.466;11.086;2022-07-23T04:39:52;14.53;;;13.23;;
1414;SDS011;702;49.466;11.086;2022-07-23T04:42:20;15.23;;;13.80;;
1414;SDS011;702;49.466;11.086;2022-07-23T04:44:47;13.90;;;12.57;;
1414;SDS011;702;49.466;11.086;2022-07-23T04:47:14;14.33;;;12.93;;
1414;SDS011;702;49.466;11.086;2022-07-23T04:49:43;14.10;;;12.70;;
1414;SDS011;702;49.466;11.086;2022-07-23T04:52:10;13.30;;;12.23;;
1414;SDS011;702;49.466;11.086;2022-07-23T04:54:38;12.50;;;11.37;;
1414;SDS011;702;49.466;11.086;2022-07-23T04:57:05;12.93;;;11.63;;
1414;SDS011;702;49.466;11.086;2022-07-23T04:59:32;12.00;;;11.00;;
1414;SDS011;702;49.466;11.086;2022-07-23T05:02:00;12.40;;;11.50;;
1414;SDS011;702;49.466;11.086;2022-07-23T05:04:27;11.97;;;11.07;;
1414;SDS011;702;49.466;11.086;2022-07-23T05:06:56;11.23;;;10.43;;
1414;SDS011;702;49.466;11.086;2022-07-23T05:09:24;10.90;;;10.00;;
1414;SDS011;702;49.466;11.086;2022-07-23T05:11:51;10.47;;;9.47;;
1414;SDS011;702;49.466;11.086;2022-07-23T05:14:19;11.47;;;10.43;;
1414;SDS011;702;49.466;11.086;2022-07-23T05:16:46;9.60;;;8.90;;
1414;SDS011;702;49.466;11.086;2022-07-23T05:19:13;10.43;;;9.33;;
1414;SDS011;702;49.466;11.086;2022-07-23T05:21:41;10.17;;;9.23;;
1414;SDS011;702;49.466;11.086;2022-07-23T05:24:09;9.73;;;8.93;;
1414;SDS011;702;49.466;11.086;2022-07-23T05:26:37;9.00;;;8.40;;
1414;SDS011;702;49.466;11.086;2022-07-23T05:29:04;8.80;;;8.10;;
1414;SDS011;702;49.466;11.086;2022-07-23T05:31:33;9.37;;;8.50;;
1414;SDS011;702;49.466;11.086;2022-07-23T05:34:00;8.90;;;8.20;;
1414;SDS011;702;49.466;11.086;2022-07-23T05:36:27;9.23;;;8.37;;
1414;SDS011;702;49.466;11.086;2022-07-23T05:38:55;8.20;;;7.60;;
1414;SDS011;702;49.466;11.086;2022-07-23T05:41:24;9.00;;;8.40;;
1414;SDS011;702;49.466;11.086;2022-07-23T05:43:51;7.73;;;7.10;;
1414;SDS011;702;49.466;11.086;2022-07-23T05:46:18;7.90;;;7.40;;
1414;SDS011;702;49.466;11.086;2022-07-23T05:48:46;8.97;;;8.07;;
1414;SDS011;702;49.466;11.086;2022-07-23T05:51:18;7.57;;;7.00;;
1414;SDS011;702;49.466;11.086;2022-07-23T05:53:47;8.70;;;7.90;;
1414;SDS011;702;49.466;11.086;2022-07-23T05:56:15;8.63;;;7.83;;
1414;SDS011;702;49.466;11.086;2022-07-23T05:58:44;7.60;;;6.97;;
1414;SDS011;702;49.466;11.086;2022-07-23T06:01:11;7.93;;;7.23;;
1414;SDS011;702;49.466;11.086;2022-07-23T06:03:39;8.40;;;7.70;;
1414;SDS011;702;49.466;11.086;2022-07-23T06:06:07;8.10;;;7.30;;
1414;SDS011;702;49.466;11.086;2022-07-23T06:08:35;8.50;;;7.73;;
1414;SDS011;702;49.466;11.086;2022-07-23T06:11:02;8.10;;;7.50;;
1414;SDS011;702;49.466;11.086;2022-07-23T06:13:29;7.40;;;6.80;;
1414;SDS011;702;49.466;11.086;2022-07-23T06:15:58;7.17;;;6.57;;
1414;SDS011;702;49.466;11.086;2022-07-23T06:18:26;7.00;;;6.50;;
1414;SDS011;702;49.466;11.086;2022-07-23T06:20:53;7.57;;;6.87;;
1414;SDS011;702;49.466;11.086;2022-07-23T06:23:20;7.20;;;6.67;;
1414;SDS011;702;49.466;11.086;2022-07-23T06:25:48;8.03;;;7.33;;
1414;SDS011;702;49.466;11.086;2022-07-23T06:28:15;6.53;;;6.13;;
1414;SDS011;702;49.466;11.086;2022-07-23T06:30:43;8.80;;;8.00;;
1414;SDS011;702;49.466;11.086;2022-07-23T06:33:12;7.23;;;6.67;;
1414;SDS011;702;49.466;11.086;2022-07-23T06:35:40;7.73;;;7.03;;
1414;SDS011;702;49.466;11.086;2022-07-23T06:38:07;6.57;;;6.07;;
1414;SDS011;702;49.466;11.086;2022-07-23T06:40:35;10.03;;;7.00;;
1414;SDS011;702;49.466;11.086;2022-07-23T06:43:02;7.17;;;6.57;;
1414;SDS011;702;49.466;11.086;2022-07-23T06:45:30;7.10;;;6.60;;
1414;SDS011;702;49.466;11.086;2022-07-23T06:47:58;6.73;;;6.23;;
1414;SDS011;702;49.466;11.086;2022-07-23T06:50:28;7.43;;;6.70;;
1414;SDS011;702;49.466;11.086;2022-07-23T06:52:55;7.50;;;6.90;;
1414;SDS011;702;49.466;11.086;2022-07-23T06:55:23;6.70;;;6.20;;
1414;SDS011;702;49.466;11.086;2022-07-23T06:57:50;7.10;;;6.60;;
1414;SDS011;702;49.466;11.086;2022-07-23T07:00:18;7.37;;;6.87;;
1414;SDS011;702;49.466;11.086;2022-07-23T07:02:45;8.07;;;7.40;;
1414;SDS011;702;49.466;11.086;2022-07-23T07:05:13;8.20;;;7.40;;
1414;SDS011;702;49.466;11.086;2022-07-23T07:07:42;8.27;;;7.57;;
1414;SDS011;702;49.466;11.086;2022-07-23T07:10:09;7.80;;;7.07;;
1414;SDS011;702;49.466;11.086;2022-07-23T07:12:36;8.60;;;7.80;;
1414;SDS011;702;49.466;11.086;2022-07-23T07:15:04;8.23;;;7.63;;
1414;SDS011;702;49.466;11.086;2022-07-23T07:17:32;8.10;;;7.50;;
1414;SDS011;702;49.466;11.086;2022-07-23T07:19:59;8.70;;;8.10;;
1414;SDS011;702;49.466;11.086;2022-07-23T07:22:27;8.33;;;7.70;;
1414;SDS011;702;49.466;11.086;2022-07-23T07:24:56;9.27;;;8.23;;
1414;SDS011;702;49.466;11.086;2022-07-23T07:27:23;8.60;;;8.00;;
1414;SDS011;702;49.466;11.086;2022-07-23T07:29:51;9.13;;;8.30;;
1414;SDS011;702;49.466;11.086;2022-07-23T07:32:18;9.60;;;8.80;;
1414;SDS011;702;49.466;11.086;2022-07-23T07:34:45;9.63;;;8.83;;
1414;SDS011;702;49.466;11.086;2022-07-23T07:37:13;9.43;;;8.80;;
1414;SDS011;702;49.466;11.086;2022-07-23T07:39:40;10.37;;;9.47;;
1414;SDS011;702;49.466;11.086;2022-07-23T07:42:09;9.80;;;9.00;;
1414;SDS011;702;49.466;11.086;2022-07-23T07:44:36;9.80;;;9.00;;
1414;SDS011;702;49.466;11.086;2022-07-23T07:47:03;9.60;;;8.70;;
1414;SDS011;702;49.466;11.086;2022-07-23T07:49:31;9.00;;;8.23;;
1414;SDS011;702;49.466;11.086;2022-07-23T07:51:58;9.07;;;8.47;;
1414;SDS011;702;49.466;11.086;2022-07-23T07:54:25;9.43;;;8.73;;
1414;SDS011;702;49.466;11.086;2022-07-23T07:56:53;10.17;;;9.30;;
1414;SDS011;702;49.466;11.086;2022-07-23T07:59:23;11.17;;;10.23;;
1414;SDS011;702;49.466;11.086;2022-07-23T08:01:50;10.83;;;9.80;;
1414;SDS011;702;49.466;11.086;2022-07-23T08:04:17;11.30;;;10.40;;
1414;SDS011;702;49.466;11.086;2022-07-23T08:06:45;10.23;;;9.27;;
1414;SDS011;702;49.466;11.086;2022-07-23T08:09:12;10.80;;;9.90;;
1414;SDS011;702;49.466;11.086;2022-07-23T08:11:39;10.33;;;9.40;;
1414;SDS011;702;49.466;11.086;2022-07-23T08:14:10;11.20;;;10.27;;
1414;SDS011;702;49.466;11.086;2022-07-23T08:16:39;11.80;;;10.80;;
1414;SDS011;702;49.466;11.086;2022-07-23T08:19:06;11.40;;;10.30;;
1414;SDS011;702;49.466;11.086;2022-07-23T08:21:33;11.43;;;10.43;;
1414;SDS011;702;49.466;11.086;2022-07-23T08:24:01;11.87;;;10.93;;
1414;SDS011;702;49.466;11.086;2022-07-23T08:26:28;11.63;;;10.70;;
1414;SDS011;702;49.466;11.086;2022-07-23T08:28:56;13.50;;;12.37;;
1414;SDS011;702;49.466;11.086;2022-07-23T08:31:24;11.73;;;10.63;;
1414;SDS011;702;49.466;11.086;2022-07-23T08:33:52;10.27;;;9.53;;
1414;SDS011;702;49.466;11.086;2022-07-23T08:36:20;10.73;;;9.63;;
1414;SDS011;702;49.466;11.086;2022-07-23T08:38:47;10.47;;;9.70;;
1414;SDS011;702;49.466;11.086;2022-07-23T08:41:15;10.60;;;9.70;;
1414;SDS011;702;49.466;11.086;2022-07-23T08:43:43;11.07;;;10.03;;
1414;SDS011;702;49.466;11.086;2022-07-23T08:46:11;11.20;;;10.30;;
1414;SDS011;702;49.466;11.086;2022-07-23T08:48:39;18.90;;;10.10;;
1414;SDS011;702;49.466;11.086;2022-07-23T08:51:08;11.17;;;10.20;;
1414;SDS011;702;49.466;11.086;2022-07-23T08:53:36;11.00;;;10.10;;
1414;SDS011;702;49.466;11.086;2022-07-23T08:56:04;10.20;;;9.40;;
1414;SDS011;702;49.466;11.086;2022-07-23T08:58:32;9.20;;;8.50;;
1414;SDS011;702;49.466;11.086;2022-07-23T09:01:00;9.17;;;8.47;;
1414;SDS011;702;49.466;11.086;2022-07-23T09:03:28;9.83;;;9.00;;
1414;SDS011;702;49.466;11.086;2022-07-23T09:05:57;10.40;;;9.30;;
1414;SDS011;702;49.466;11.086;2022-07-23T09:08:33;9.90;;;8.93;;
1414;SDS011;702;49.466;11.086;2022-07-23T09:11:03;9.60;;;8.60;;
1414;SDS011;702;49.466;11.086;2022-07-23T09:13:34;9.63;;;8.63;;
1414;SDS011;702;49.466;11.086;2022-07-23T09:16:06;9.93;;;9.10;;
1414;SDS011;702;49.466;11.086;2022-07-23T09:18:40;10.43;;;9.53;;
1414;SDS011;702;49.466;11.086;2022-07-23T09:21:11;9.53;;;8.83;;
1414;SDS011;702;49.466;11.086;2022-07-23T09:23:47;9.50;;;8.70;;
1414;SDS011;702;49.466;11.086;2022-07-23T09:26:20;10.10;;;8.90;;
1414;SDS011;702;49.466;11.086;2022-07-23T09:28:59;9.63;;;8.93;;
1414;SDS011;702;49.466;11.086;2022-07-23T09:31:31;9.70;;;8.90;;
1414;SDS011;702;49.466;11.086;2022-07-23T09:34:11;8.93;;;8.30;;
1414;SDS011;702;49.466;11.086;2022-07-23T09:36:41;8.57;;;7.87;;
1414;SDS011;702;49.466;11.086;2022-07-23T09:39:11;8.90;;;8.20;;
1414;SDS011;702;49.466;11.086;2022-07-23T09:41:40;8.73;;;8.07;;
1414;SDS011;702;49.466;11.086;2022-07-23T09:44:11;7.60;;;6.90;;
1414;SDS011;702;49.466;11.086;2022-07-23T09:46:41;9.50;;;8.50;;
1414;SDS011;702;49.466;11.086;2022-07-23T09:49:17;9.00;;;8.20;;
1414;SDS011;702;49.466;11.086;2022-07-23T09:51:48;8.47;;;7.80;;
1414;SDS011;702;49.466;11.086;2022-07-23T09:54:25;8.70;;;8.00;;
1414;SDS011;702;49.466;11.086;2022-07-23T09:56:57;8.30;;;7.60;;
1414;SDS011;702;49.466;11.086;2022-07-23T09:59:26;8.80;;;8.00;;
1414;SDS011;702;49.466;11.086;2022-07-23T10:01:57;9.00;;;8.10;;
1414;SDS011;702;49.466;11.086;2022-07-23T10:04:26;9.00;;;8.20;;
1414;SDS011;702;49.466;11.086;2022-07-23T10:06:56;9.20;;;8.50;;
1414;SDS011;702;49.466;11.086;2022-07-23T10:09:26;9.90;;;8.90;;
1414;SDS011;702;49.466;11.086;2022-07-23T10:11:56;9.27;;;8.47;;
1414;SDS011;702;49.466;11.086;2022-07-23T10:14:39;10.87;;;9.97;;
1414;SDS011;702;49.466;11.086;2022-07-23T10:17:07;10.20;;;9.30;;
1414;SDS011;702;49.466;11.086;2022-07-23T10:19:35;11.30;;;9.60;;
1414;SDS011;702;49.466;11.086;2022-07-23T10:22:03;9.77;;;8.87;;
1414;SDS011;702;49.466;11.086;2022-07-23T10:24:49;10.13;;;9.23;;
1414;SDS011;702;49.466;11.086;2022-07-23T10:27:31;9.77;;;9.07;;
1414;SDS011;702;49.466;11.086;2022-07-23T10:30:26;12.07;;;10.97;;
1414;SDS011;702;49.466;11.086;2022-07-23T10:33:03;11.13;;;10.07;;
1414;SDS011;702;49.466;11.086;2022-07-23T10:35:52;12.00;;;10.90;;
1414;SDS011;702;49.466;11.086;2022-07-23T10:38:29;12.23;;;11.23;;
1414;SDS011;702;49.466;11.086;2022-07-23T10:41:02;12.90;;;11.80;;
1414;SDS011;702;49.466;11.086;2022-07-23T10:43:30;13.23;;;12.03;;
1414;SDS011;702;49.466;11.086;2022-07-23T10:54:47;11.60;;;10.60;;
1414;SDS011;702;49.466;11.086;2022-07-23T10:57:18;12.87;;;11.80;;
1414;SDS011;702;49.466;11.086;2022-07-23T11:02:50;13.10;;;11.90;;
1414;SDS011;702;49.466;11.086;2022-07-23T11:05:19;12.17;;;11.17;;
1414;SDS011;702;49.466;11.086;2022-07-23T11:10:53;13.57;;;12.30;;
1414;SDS011;702;49.466;11.086;2022-07-23T11:13:29;13.13;;;11.83;;
1414;SDS011;702;49.466;11.086;2022-07-23T11:21:50;12.40;;;11.30;;
1414;SDS011;702;49.466;11.086;2022-07-23T11:24:20;12.63;;;11.53;;
1414;SDS011;702;49.466;11.086;2022-07-23T11:26:51;12.97;;;11.77;;
1414;SDS011;702;49.466;11.086;2022-07-23T11:37:49;11.63;;;9.47;;
1414;SDS011;702;49.466;11.086;2022-07-23T11:40:19;11.00;;;10.00;;
1414;SDS011;702;49.466;11.086;2022-07-23T11:42:54;9.50;;;8.70;;
1414;SDS011;702;49.466;11.086;2022-07-23T11:45:29;9.97;;;9.17;;
1414;SDS011;702;49.466;11.086;2022-07-23T11:47:59;9.00;;;8.30;;
1414;SDS011;702;49.466;11.086;2022-07-23T11:50:27;10.07;;;9.30;;
1414;SDS011;702;49.466;11.086;2022-07-23T11:52:55;10.40;;;9.60;;
1414;SDS011;702;49.466;11.086;2022-07-23T11:55:23;9.03;;;8.33;;
1414;SDS011;702;49.466;11.086;2022-07-23T11:57:51;9.77;;;8.83;;
1414;SDS011;702;49.466;11.086;2022-07-23T12:00:20;8.33;;;7.70;;
1414;SDS011;702;49.466;11.086;2022-07-23T12:02:51;9.43;;;8.50;;
1414;SDS011;702;49.466;11.086;2022-07-23T12:05:22;9.83;;;9.03;;
1414;SDS011;702;49.466;11.086;2022-07-23T12:07:52;10.73;;;9.93;;
1414;SDS011;702;49.466;11.086;2022-07-23T12:10:22;9.63;;;8.87;;
1414;SDS011;702;49.466;11.086;2022-07-23T12:12:52;9.23;;;8.63;;
1414;SDS011;702;49.466;11.086;2022-07-23T12:15:22;9.93;;;8.33;;
1414;SDS011;702;49.466;11.086;2022-07-23T12:17:54;9.40;;;8.67;;
1414;SDS011;702;49.466;11.086;2022-07-23T12:20:22;8.47;;;7.80;;
1414;SDS011;702;49.466;11.086;2022-07-23T12:22:53;9.20;;;8.40;;
1414;SDS011;702;49.466;11.086;2022-07-23T12:25:25;9.00;;;8.30;;
1414;SDS011;702;49.466;11.086;2022-07-23T12:28:01;9.67;;;8.87;;
1414;SDS011;702;49.466;11.086;2022-07-23T12:30:36;9.00;;;8.30;;
1414;SDS011;702;49.466;11.086;2022-07-23T12:33:07;8.80;;;8.10;;
1414;SDS011;702;49.466;11.086;2022-07-23T12:35:38;9.30;;;8.40;;
1414;SDS011;702;49.466;11.086;2022-07-23T12:38:08;9.40;;;8.63;;
1414;SDS011;702;49.466;11.086;2022-07-23T12:40:37;9.40;;;8.70;;
1414;SDS011;702;49.466;11.086;2022-07-23T12:43:18;8.87;;;8.27;;
1414;SDS011;702;49.466;11.086;2022-07-23T12:45:47;9.57;;;8.90;;
1414;SDS011;702;49.466;11.086;2022-07-23T12:48:18;9.53;;;8.73;;
1414;SDS011;702;49.466;11.086;2022-07-23T12:50:50;10.30;;;9.50;;
1414;SDS011;702;49.466;11.086;2022-07-23T12:53:25;9.80;;;9.00;;
1414;SDS011;702;49.466;11.086;2022-07-23T12:56:00;9.30;;;8.60;;
1414;SDS011;702;49.466;11.086;2022-07-23T12:58:41;9.90;;;9.10;;
1414;SDS011;702;49.466;11.086;2022-07-23T13:01:21;9.60;;;8.80;;
1414;SDS011;702;49.466;11.086;2022-07-23T13:03:56;9.27;;;8.57;;
1414;SDS011;702;49.466;11.086;2022-07-23T13:06:27;8.90;;;8.10;;
1414;SDS011;702;49.466;11.086;2022-07-23T13:08:56;8.97;;;8.27;;
1414;SDS011;702;49.466;11.086;2022-07-23T13:11:24;9.10;;;8.30;;
1414;SDS011;702;49.466;11.086;2022-07-23T13:13:51;9.30;;;8.60;;
1414;SDS011;702;49.466;11.086;2022-07-23T13:16:19;8.70;;;8.00;;
1414;SDS011;702;49.466;11.086;2022-07-23T13:18:46;10.20;;;9.40;;
1414;SDS011;702;49.466;11.086;2022-07-23T13:21:15;8.20;;;7.50;;
1414;SDS011;702;49.466;11.086;2022-07-23T13:23:42;9.10;;;8.40;;
1414;SDS011;702;49.466;11.086;2022-07-23T13:26:10;8.87;;;8.07;;
1414;SDS011;702;49.466;11.086;2022-07-23T13:28:37;9.40;;;8.70;;
1414;SDS011;702;49.466;11.086;2022-07-23T13:31:05;8.47;;;7.87;;
1414;SDS011;702;49.466;11.086;2022-07-23T13:33:32;8.70;;;7.93;;
1414;SDS011;702;49.466;11.086;2022-07-23T13:36:00;8.97;;;8.27;;
1414;SDS011;702;49.466;11.086;2022-07-23T13:38:29;8.90;;;8.30;;
1414;SDS011;702;49.466;11.086;2022-07-23T13:40:56;9.50;;;8.70;;
1414;SDS011;702;49.466;11.086;2022-07-23T13:43:24;8.93;;;8.30;;
1414;SDS011;702;49.466;11.086;2022-07-23T13:45:52;9.33;;;8.70;;
1414;SDS011;702;49.466;11.086;2022-07-23T13:48:19;9.10;;;8.40;;
1414;SDS011;702;49.466;11.086;2022-07-23T13:50:47;9.87;;;8.97;;
1414;SDS011;702;49.466;11.086;2022-07-23T13:53:16;9.00;;;8.10;;
1414;SDS011;702;49.466;11.086;2022-07-23T13:55:47;8.40;;;7.80;;
1414;SDS011;702;49.466;11.086;2022-07-23T13:58:20;9.17;;;8.37;;
1414;SDS011;702;49.466;11.086;2022-07-23T14:00:48;9.17;;;8.47;;
1414;SDS011;702;49.466;11.086;2022-07-23T14:03:18;10.00;;;8.60;;
1414;SDS011;702;49.466;11.086;2022-07-23T14:05:48;9.60;;;8.87;;
1414;SDS011;702;49.466;11.086;2022-07-23T14:08:15;9.00;;;8.30;;
1414;SDS011;702;49.466;11.086;2022-07-23T14:10:43;8.73;;;8.13;;
1414;SDS011;702;49.466;11.086;2022-07-23T14:13:11;8.87;;;8.17;;
1414;SDS011;702;49.466;11.086;2022-07-23T14:15:39;9.40;;;8.70;;
1414;SDS011;702;49.466;11.086;2022-07-23T14:18:07;8.60;;;8.00;;
1414;SDS011;702;49.466;11.086;2022-07-23T14:20:35;8.40;;;7.90;;
1414;SDS011;702;49.466;11.086;2022-07-23T14:23:02;9.10;;;8.50;;
1414;SDS011;702;49.466;11.086;2022-07-23T14:25:29;9.73;;;8.80;;
1414;SDS011;702;49.466;11.086;2022-07-23T14:27:56;8.67;;;7.97;;
1414;SDS011;702;49.466;11.086;2022-07-23T14:30:25;9.53;;;8.83;;
1414;SDS011;702;49.466;11.086;2022-07-23T14:32:53;9.63;;;8.73;;
1414;SDS011;702;49.466;11.086;2022-07-23T14:35:20;10.50;;;9.70;;
1414;SDS011;702;49.466;11.086;2022-07-23T14:37:48;9.10;;;8.33;;
1414;SDS011;702;49.466;11.086;2022-07-23T14:40:16;10.13;;;9.43;;
1414;SDS011;702;49.466;11.086;2022-07-23T14:42:44;10.40;;;9.60;;
1414;SDS011;702;49.466;11.086;2022-07-23T14:45:11;9.50;;;8.80;;
1414;SDS011;702;49.466;11.086;2022-07-23T14:47:40;9.43;;;8.70;;
1414;SDS011;702;49.466;11.086;2022-07-23T14:50:08;8.97;;;8.17;;
1414;SDS011;702;49.466;11.086;2022-07-23T14:52:35;9.10;;;8.40;;
1414;SDS011;702;49.466;11.086;2022-07-23T14:55:03;8.23;;;7.63;;
1414;SDS011;702;49.466;11.086;2022-07-23T14:57:31;9.13;;;8.33;;
1414;SDS011;702;49.466;11.086;2022-07-23T15:00:00;8.77;;;7.97;;
1414;SDS011;702;49.466;11.086;2022-07-23T15:02:28;9.57;;;8.07;;
1414;SDS011;702;49.466;11.086;2022-07-23T15:04:56;9.07;;;8.37;;
1414;SDS011;702;49.466;11.086;2022-07-23T15:07:26;8.57;;;7.97;;
1414;SDS011;702;49.466;11.086;2022-07-23T15:09:54;8.40;;;7.80;;
1414;SDS011;702;49.466;11.086;2022-07-23T15:12:21;8.00;;;7.50;;
1414;SDS011;702;49.466;11.086;2022-07-23T15:14:49;8.30;;;7.60;;
1414;SDS011;702;49.466;11.086;2022-07-23T15:17:17;8.77;;;8.07;;
1414;SDS011;702;49.466;11.086;2022-07-23T15:19:44;8.50;;;7.90;;
1414;SDS011;702;49.466;11.086;2022-07-23T15:22:13;8.13;;;7.43;;
1414;SDS011;702;49.466;11.086;2022-07-23T15:24:40;8.43;;;7.80;;
1414;SDS011;702;49.466;11.086;2022-07-23T15:27:08;8.93;;;8.23;;
1414;SDS011;702;49.466;11.086;2022-07-23T15:29:35;7.97;;;7.33;;
1414;SDS011;702;49.466;11.086;2022-07-23T15:32:03;9.00;;;8.20;;
1414;SDS011;702;49.466;11.086;2022-07-23T15:34:31;8.60;;;7.90;;
1414;SDS011;702;49.466;11.086;2022-07-23T15:36:59;7.93;;;7.37;;
1414;SDS011;702;49.466;11.086;2022-07-23T15:39:28;8.40;;;7.80;;
1414;SDS011;702;49.466;11.086;2022-07-23T15:41:58;8.50;;;7.90;;